createdAt,value
2016-08-05T00:00:43.540Z,99.99
2016-08-05T00:01:42.811Z,99.99
2016-08-05T00:02:43.531Z,99.99
2016-08-05T00:03:43.605Z,99.99
2016-08-05T00:04:43.572Z,99.99
2016-08-05T00:05:43.603Z,99.99
2016-08-05T00:06:43.632Z,99.99
2016-08-05T00:07:42.927Z,99.99
2016-08-05T00:08:42.956Z,99.99
2016-08-05T00:09:42.984Z,99.99
2016-08-05T00:10:43.700Z,99.99
2016-08-05T00:11:43.723Z,99.99
2016-08-05T00:12:43.159Z,99.99
2016-08-05T00:13:43.778Z,99.99
2016-08-05T00:14:43.843Z,99.99
2016-08-05T00:15:43.819Z,99.99
2016-08-05T00:16:43.882Z,99.99
2016-08-05T00:17:43.141Z,99.99
2016-08-05T00:18:43.865Z,99.99
2016-08-05T00:19:43.192Z,99.99
2016-08-05T00:20:43.923Z,99.99
2016-08-05T00:21:43.947Z,99.99
2016-08-05T00:22:43.253Z,99.99
2016-08-05T00:23:43.977Z,99.99
2016-08-05T00:24:43.288Z,99.99
2016-08-05T00:25:44.033Z,99.99
2016-08-05T00:26:44.038Z,99.99
2016-08-05T00:27:43.345Z,99.99
2016-08-05T00:28:43.372Z,99.99
2016-08-05T00:29:44.100Z,99.99
2016-08-05T00:30:44.124Z,99.99
2016-08-05T00:31:43.435Z,99.99
2016-08-05T00:32:44.169Z,99.99
2016-08-05T00:33:44.241Z,99.99
2016-08-05T00:34:43.508Z,99.99
2016-08-05T00:35:43.518Z,99.99
2016-08-05T00:36:44.253Z,99.99
2016-08-05T00:37:44.274Z,99.99
2016-08-05T00:38:44.288Z,99.99
2016-08-05T00:39:43.609Z,99.99
2016-08-05T00:40:44.335Z,99.99
2016-08-05T00:41:44.360Z,99.99
2016-08-05T00:42:44.460Z,99.99
2016-08-05T00:43:44.384Z,99.99
2016-08-05T00:44:43.723Z,99.99
2016-08-05T00:45:43.731Z,99.99
2016-08-05T00:46:44.446Z,99.99
2016-08-05T00:47:44.473Z,99.99
2016-08-05T00:48:44.498Z,99.99
2016-08-05T00:49:43.807Z,99.99
2016-08-05T00:50:44.532Z,99.99
2016-08-05T00:51:44.550Z,99.99
2016-08-05T00:52:44.571Z,99.99
2016-08-05T00:53:44.592Z,99.99
2016-08-05T00:54:43.909Z,99.99
2016-08-05T00:55:43.936Z,99.99
2016-08-05T00:56:44.662Z,99.99
2016-08-05T00:57:43.963Z,99.99
2016-08-05T00:58:44.007Z,99.99
2016-08-05T00:59:44.717Z,99.99
2016-08-05T01:00:44.746Z,99.99
2016-08-05T01:01:44.763Z,99.99
2016-08-05T01:02:44.064Z,99.99
2016-08-05T01:03:44.824Z,99.99
2016-08-05T01:04:44.112Z,99.99
2016-08-05T01:05:44.847Z,99.99
2016-08-05T01:06:44.967Z,99.99
2016-08-05T01:07:44.896Z,99.99
2016-08-05T01:08:44.203Z,99.99
2016-08-05T01:09:44.924Z,99.99
2016-08-05T01:10:44.240Z,99.99
2016-08-05T01:11:44.959Z,99.99
2016-08-05T01:12:44.282Z,99.99
2016-08-05T01:13:45.004Z,99.99
2016-08-05T01:14:45.024Z,99.99
2016-08-05T01:15:45.055Z,99.99
2016-08-05T01:16:44.362Z,99.99
2016-08-05T01:17:45.087Z,99.99
2016-08-05T01:18:44.396Z,99.99
2016-08-05T01:19:44.419Z,99.99
2016-08-05T01:20:44.440Z,99.99
2016-08-05T01:21:44.459Z,99.99
2016-08-05T01:22:45.185Z,99.99
2016-08-05T01:23:45.202Z,99.99
2016-08-05T01:24:44.524Z,99.99
2016-08-05T01:25:45.245Z,99.99
2016-08-05T01:26:44.552Z,99.99
2016-08-05T01:27:44.579Z,99.99
2016-08-05T01:28:45.373Z,99.99
2016-08-05T01:29:45.340Z,99.99
2016-08-05T01:30:45.404Z,99.99
2016-08-05T01:31:45.362Z,99.99
2016-08-05T01:32:45.395Z,99.99
2016-08-05T01:33:44.705Z,99.99
2016-08-05T01:34:44.719Z,99.99
2016-08-05T01:35:44.740Z,99.99
2016-08-05T01:36:45.463Z,99.99
2016-08-05T01:37:45.504Z,99.99
2016-08-05T01:38:44.881Z,99.99
2016-08-05T01:39:45.653Z,99.99
2016-08-05T01:40:45.556Z,99.99
2016-08-05T01:41:45.591Z,99.99
2016-08-05T01:42:45.603Z,99.99
2016-08-05T01:43:44.897Z,99.99
2016-08-05T01:44:45.627Z,99.99
2016-08-05T01:45:45.653Z,99.99
2016-08-05T01:46:45.114Z,99.99
2016-08-05T01:47:45.696Z,99.99
2016-08-05T01:48:45.722Z,99.99
2016-08-05T01:49:45.021Z,99.99
2016-08-05T01:50:45.753Z,99.99
2016-08-05T01:51:45.074Z,99.99
2016-08-05T01:52:45.159Z,99.99
2016-08-05T01:53:45.814Z,99.99
2016-08-05T01:54:45.146Z,99.99
2016-08-05T01:55:45.853Z,99.99
2016-08-05T01:56:45.174Z,99.99
2016-08-05T01:57:45.894Z,99.99
2016-08-05T01:58:45.201Z,99.99
2016-08-05T01:59:45.226Z,99.99
2016-08-05T02:00:45.974Z,99.99
2016-08-05T02:01:45.274Z,99.99
2016-08-05T02:02:45.987Z,99.99
2016-08-05T02:03:45.302Z,99.99
2016-08-05T02:04:46.049Z,99.99
2016-08-05T02:05:46.044Z,99.99
2016-08-05T02:06:45.362Z,99.99
2016-08-05T02:07:45.384Z,99.99
2016-08-05T02:08:46.118Z,99.99
2016-08-05T02:09:45.442Z,99.99
2016-08-05T02:10:46.150Z,99.99
2016-08-05T02:11:45.476Z,99.99
2016-08-05T02:12:46.204Z,99.99
2016-08-05T02:13:45.515Z,99.99
2016-08-05T02:14:45.534Z,99.99
2016-08-05T02:15:46.242Z,99.99
2016-08-05T02:16:46.278Z,99.99
2016-08-05T02:17:46.300Z,99.99
2016-08-05T02:18:46.324Z,99.99
2016-08-05T02:19:46.536Z,99.99
2016-08-05T02:20:46.354Z,99.99
2016-08-05T02:21:46.374Z,99.99
2016-08-05T02:22:45.683Z,99.99
2016-08-05T02:23:46.407Z,99.99
2016-08-05T02:24:46.439Z,99.99
2016-08-05T02:25:46.464Z,99.99
2016-08-05T02:26:46.483Z,99.99
2016-08-05T02:27:46.499Z,99.99
2016-08-05T02:28:46.517Z,99.99
2016-08-05T02:29:45.825Z,99.99
2016-08-05T02:30:46.565Z,99.99
2016-08-05T02:31:46.577Z,99.99
2016-08-05T02:32:46.594Z,99.99
2016-08-05T02:33:46.644Z,99.99
2016-08-05T02:34:45.924Z,99.99
2016-08-05T02:35:46.653Z,99.99
2016-08-05T02:36:46.675Z,99.99
2016-08-05T02:37:46.702Z,99.99
2016-08-05T02:38:46.704Z,99.99
2016-08-05T02:39:46.729Z,99.99
2016-08-05T02:40:46.039Z,99.99
2016-08-05T02:41:46.762Z,99.99
2016-08-05T02:42:46.085Z,99.99
2016-08-05T02:43:46.804Z,99.99
2016-08-05T02:44:46.126Z,99.99
2016-08-05T02:45:46.149Z,99.99
2016-08-05T02:46:46.876Z,99.99
2016-08-05T02:47:46.187Z,99.99
2016-08-05T02:48:46.206Z,99.99
2016-08-05T02:49:46.924Z,99.99
2016-08-05T02:50:46.242Z,99.99
2016-08-05T02:51:46.975Z,99.99
2016-08-05T02:52:46.278Z,99.99
2016-08-05T02:53:46.373Z,99.99
2016-08-05T02:54:46.313Z,99.99
2016-08-05T02:55:47.050Z,99.99
2016-08-05T02:56:47.063Z,99.99
2016-08-05T02:57:46.374Z,99.99
2016-08-05T02:58:47.115Z,99.99
2016-08-05T02:59:47.123Z,99.99
2016-08-05T03:00:46.815Z,99.99
2016-08-05T03:01:46.617Z,99.99
2016-08-05T03:02:46.694Z,99.99
2016-08-05T03:03:46.645Z,99.99
2016-08-05T03:04:46.863Z,99.99
2016-08-05T03:05:46.656Z,99.99
2016-08-05T03:06:46.916Z,99.99
2016-08-05T03:07:46.672Z,99.99
2016-08-05T03:08:47.552Z,99.99
2016-08-05T03:09:46.676Z,99.99
2016-08-05T03:10:46.889Z,99.99
2016-08-05T03:11:46.693Z,99.99
2016-08-05T03:12:47.385Z,99.99
2016-08-05T03:13:46.693Z,99.99
2016-08-05T03:14:46.866Z,99.99
2016-08-05T03:15:47.447Z,99.99
2016-08-05T03:16:47.562Z,99.99
2016-08-05T03:17:46.874Z,99.99
2016-08-05T03:18:47.506Z,99.99
2016-08-05T03:19:47.526Z,99.99
2016-08-05T03:20:47.541Z,99.99
2016-08-05T03:21:46.909Z,99.99
2016-08-05T03:22:47.575Z,99.99
2016-08-05T03:23:46.945Z,99.99
2016-08-05T03:24:47.624Z,99.99
2016-08-05T03:25:47.736Z,99.99
2016-08-05T03:26:46.944Z,99.99
2016-08-05T03:27:47.674Z,99.99
2016-08-05T03:28:47.698Z,99.99
2016-08-05T03:29:47.014Z,99.99
2016-08-05T03:30:47.034Z,99.99
2016-08-05T03:31:47.766Z,99.99
2016-08-05T03:32:47.783Z,99.99
2016-08-05T03:33:47.857Z,99.99
2016-08-05T03:34:47.917Z,99.99
2016-08-05T03:35:47.125Z,99.99
2016-08-05T03:36:47.847Z,99.99
2016-08-05T03:37:47.161Z,99.99
2016-08-05T03:38:47.187Z,99.99
2016-08-05T03:39:47.219Z,99.99
2016-08-05T03:40:47.932Z,99.99
2016-08-05T03:41:47.947Z,99.99
2016-08-05T03:42:47.964Z,99.99
2016-08-05T03:43:47.296Z,99.99
2016-08-05T03:44:48.004Z,99.99
2016-08-05T03:45:48.024Z,99.99
2016-08-05T03:46:48.059Z,99.99
2016-08-05T03:47:47.374Z,99.99
2016-08-05T03:48:47.386Z,99.99
2016-08-05T03:49:47.395Z,99.99
2016-08-05T03:50:47.415Z,99.99
2016-08-05T03:51:48.146Z,99.99
2016-08-05T03:52:48.163Z,99.99
2016-08-05T03:53:48.191Z,99.99
2016-08-05T03:54:48.209Z,99.99
2016-08-05T03:55:47.516Z,99.99
2016-08-05T03:56:48.241Z,99.99
2016-08-05T03:57:48.256Z,99.99
2016-08-05T03:58:48.305Z,99.99
2016-08-05T03:59:48.327Z,99.99
2016-08-05T04:00:48.327Z,99.99
2016-08-05T04:01:48.335Z,99.99
2016-08-05T04:02:48.374Z,99.99
2016-08-05T04:03:47.684Z,99.99
2016-08-05T04:04:47.692Z,99.99
2016-08-05T04:05:48.432Z,99.99
2016-08-05T04:06:48.450Z,99.99
2016-08-05T04:07:48.470Z,99.99
2016-08-05T04:08:48.485Z,99.99
2016-08-05T04:09:48.517Z,99.99
2016-08-05T04:10:48.051Z,99.99
2016-08-05T04:11:48.542Z,99.99
2016-08-05T04:12:48.568Z,99.99
2016-08-05T04:13:48.700Z,99.99
2016-08-05T04:14:48.597Z,99.99
2016-08-05T04:15:47.909Z,99.99
2016-08-05T04:16:48.647Z,99.99
2016-08-05T04:17:48.662Z,99.99
2016-08-05T04:18:48.669Z,99.99
2016-08-05T04:19:47.994Z,99.99
2016-08-05T04:20:48.720Z,99.99
2016-08-05T04:21:48.039Z,99.99
2016-08-05T04:22:48.746Z,99.99
2016-08-05T04:23:48.775Z,99.99
2016-08-05T04:24:48.102Z,99.99
2016-08-05T04:26:48.832Z,99.99
2016-08-05T04:27:48.850Z,99.99
2016-08-05T04:28:48.172Z,99.99
2016-08-05T04:29:48.891Z,99.99
2016-08-05T04:30:48.222Z,99.99
2016-08-05T04:31:48.941Z,99.99
2016-08-05T04:32:48.965Z,99.99
2016-08-05T04:33:49.039Z,99.99
2016-08-05T04:34:48.283Z,99.99
2016-08-05T04:35:49.021Z,99.99
2016-08-05T04:36:48.333Z,99.99
2016-08-05T04:37:49.060Z,99.99
2016-08-05T04:38:49.076Z,99.99
2016-08-05T04:39:48.391Z,99.99
2016-08-05T04:41:48.429Z,99.99
2016-08-05T04:42:49.195Z,99.99
2016-08-05T04:43:49.164Z,99.99
2016-08-05T04:44:48.485Z,99.99
2016-08-05T04:45:49.209Z,99.99
2016-08-05T04:46:48.555Z,99.99
2016-08-05T04:47:49.251Z,99.99
2016-08-05T04:48:48.649Z,99.99
2016-08-05T04:49:49.287Z,99.99
2016-08-05T04:50:49.407Z,99.99
2016-08-05T04:51:49.332Z,99.99
2016-08-05T04:52:49.340Z,99.99
2016-08-05T04:53:48.654Z,99.99
2016-08-05T04:54:48.684Z,99.99
2016-08-05T04:56:49.429Z,99.99
2016-08-05T04:57:48.802Z,99.99
2016-08-05T04:58:49.482Z,99.99
2016-08-05T04:59:49.508Z,99.99
2016-08-05T05:00:48.800Z,99.99
2016-08-05T05:01:49.000Z,99.99
2016-08-05T05:02:48.852Z,99.99
2016-08-05T05:03:48.903Z,99.99
2016-08-05T05:04:49.569Z,99.99
2016-08-05T05:05:48.907Z,99.99
2016-08-05T05:06:49.618Z,99.99
2016-08-05T05:07:49.649Z,99.99
2016-08-05T05:08:48.971Z,99.99
2016-08-05T05:09:49.695Z,99.99
2016-08-05T05:11:49.738Z,99.99
2016-08-05T05:12:49.755Z,99.99
2016-08-05T05:13:49.766Z,99.99
2016-08-05T05:14:49.173Z,99.99
2016-08-05T05:15:49.819Z,99.99
2016-08-05T05:16:49.830Z,99.99
2016-08-05T05:17:49.138Z,99.99
2016-08-05T05:18:49.860Z,99.99
2016-08-05T05:19:49.877Z,99.99
2016-08-05T05:20:49.203Z,99.99
2016-08-05T05:21:49.931Z,99.99
2016-08-05T05:22:49.964Z,99.99
2016-08-05T05:23:50.045Z,99.99
2016-08-05T05:24:49.987Z,99.99
2016-08-05T05:25:50.026Z,99.99
2016-08-05T05:26:50.028Z,99.99
2016-08-05T05:27:50.081Z,99.99
2016-08-05T05:28:50.082Z,99.99
2016-08-05T05:29:49.384Z,99.99
2016-08-05T05:30:50.115Z,99.99
2016-08-05T05:31:50.135Z,99.99
2016-08-05T05:32:50.164Z,99.99
2016-08-05T05:33:50.172Z,99.99
2016-08-05T05:34:49.493Z,99.99
2016-08-05T05:35:50.213Z,99.99
2016-08-05T05:36:49.534Z,99.99
2016-08-05T05:37:50.273Z,99.99
2016-08-05T05:38:49.615Z,99.99
2016-08-05T05:39:50.297Z,99.99
2016-08-05T05:40:50.323Z,99.99
2016-08-05T05:41:49.623Z,99.99
2016-08-05T05:42:50.357Z,99.99
2016-08-05T05:43:50.390Z,99.99
2016-08-05T05:44:50.423Z,99.99
2016-08-05T05:45:50.408Z,99.99
2016-08-05T05:46:50.451Z,99.99
2016-08-05T05:47:50.459Z,99.99
2016-08-05T05:48:50.487Z,99.99
2016-08-05T05:49:49.793Z,99.99
2016-08-05T05:50:50.515Z,99.99
2016-08-05T05:51:50.556Z,99.99
2016-08-05T05:52:49.862Z,99.99
2016-08-05T05:53:50.586Z,99.99
2016-08-05T05:54:50.612Z,99.99
2016-08-05T05:55:50.631Z,99.99
2016-08-05T05:56:50.647Z,99.99
2016-08-05T05:57:50.660Z,99.99
2016-08-05T05:58:50.692Z,99.99
2016-08-05T05:59:50.011Z,99.99
2016-08-05T06:00:50.737Z,99.99
2016-08-05T06:01:50.741Z,99.99
2016-08-05T06:02:50.779Z,99.99
2016-08-05T06:03:50.801Z,99.99
2016-08-05T06:04:50.878Z,99.99
2016-08-05T06:05:50.847Z,99.99
2016-08-05T06:06:50.149Z,99.99
2016-08-05T06:07:50.871Z,99.99
2016-08-05T06:08:50.900Z,99.99
2016-08-05T06:09:50.919Z,99.99
2016-08-05T06:10:50.958Z,99.99
2016-08-05T06:11:50.969Z,99.99
2016-08-05T06:12:50.981Z,99.99
2016-08-05T06:13:51.016Z,99.99
2016-08-05T06:14:50.329Z,99.99
2016-08-05T06:15:50.338Z,99.99
2016-08-05T06:16:51.066Z,99.99
2016-08-05T06:17:50.386Z,99.99
2016-08-05T06:18:50.399Z,99.99
2016-08-05T06:19:51.184Z,99.99
2016-08-05T06:20:51.150Z,99.99
2016-08-05T06:21:50.467Z,99.99
2016-08-05T06:22:50.646Z,99.99
2016-08-05T06:23:51.212Z,99.99
2016-08-05T06:24:51.241Z,99.99
2016-08-05T06:25:51.250Z,99.99
2016-08-05T06:26:51.286Z,99.4
2016-08-05T06:27:51.298Z,98.82
2016-08-05T06:28:50.630Z,97.52
2016-08-05T06:29:51.361Z,97.09
2016-08-05T06:30:51.378Z,96.99
2016-08-05T06:31:51.400Z,97.42
2016-08-05T06:32:51.429Z,97.04
2016-08-05T06:33:51.503Z,97.33
2016-08-05T06:34:50.752Z,96.85
2016-08-05T06:35:51.490Z,96.37
2016-08-05T06:36:50.796Z,96.66
2016-08-05T06:37:50.879Z,95.7
2016-08-05T06:38:51.551Z,96.66
2016-08-05T06:39:51.635Z,96.66
2016-08-05T06:40:51.589Z,96.37
2016-08-05T06:41:51.606Z,95.26
2016-08-05T06:42:50.930Z,94.49
2016-08-05T06:43:50.952Z,94.21
2016-08-05T06:44:51.690Z,93.87
2016-08-05T06:45:51.708Z,93.58
2016-08-05T06:46:51.742Z,93.58
2016-08-05T06:47:51.753Z,93.15
2016-08-05T06:48:51.132Z,92.57
2016-08-05T06:49:51.802Z,92.57
2016-08-05T06:50:51.161Z,92.28
2016-08-05T06:51:51.131Z,91.8
2016-08-05T06:52:51.871Z,91.51
2016-08-05T06:53:51.901Z,91.55
2016-08-05T06:54:51.907Z,90.88
2016-08-05T06:55:51.239Z,90.59
2016-08-05T06:56:51.963Z,90.44
2016-08-05T06:57:51.384Z,90.44
2016-08-05T06:58:51.300Z,90.25
2016-08-05T06:59:51.408Z,90.54
2016-08-05T07:00:51.359Z,89.58
2016-08-05T07:01:52.110Z,89.29
2016-08-05T07:02:52.109Z,88.56
2016-08-05T07:03:51.442Z,87.79
2016-08-05T07:04:52.151Z,87.79
2016-08-05T07:05:51.489Z,88.51
2016-08-05T07:06:52.201Z,88.56
2016-08-05T07:07:51.570Z,87.88
2016-08-05T07:08:51.554Z,87.79
2016-08-05T07:09:51.578Z,89.19
2016-08-05T07:10:52.312Z,89.67
2016-08-05T07:11:51.621Z,90.25
2016-08-05T07:12:51.652Z,91.02
2016-08-05T07:13:52.482Z,91.41
2016-08-05T07:14:51.690Z,91.65
2016-08-05T07:15:52.441Z,92.13
2016-08-05T07:16:51.753Z,92.66
2016-08-05T07:17:52.471Z,93.53
2016-08-05T07:18:52.503Z,94.35
2016-08-05T07:19:51.807Z,94.25
2016-08-05T07:20:51.851Z,95.31
2016-08-05T07:21:52.568Z,96.17
2016-08-05T07:22:51.883Z,96.03
2016-08-05T07:23:52.613Z,96.42
2016-08-05T07:24:51.930Z,95.75
2016-08-05T07:25:52.661Z,96.51
2016-08-05T07:26:52.701Z,96.32
2016-08-05T07:27:52.008Z,97.09
2016-08-05T07:28:52.744Z,97.47
2016-08-05T07:29:52.770Z,96.9
2016-08-05T07:30:52.789Z,97.09
2016-08-05T07:31:52.803Z,97.38
2016-08-05T07:32:52.832Z,96.42
2016-08-05T07:33:52.853Z,96.51
2016-08-05T07:34:52.884Z,96.32
2016-08-05T07:35:52.896Z,96.22
2016-08-05T07:36:53.010Z,96.22
2016-08-05T07:37:52.946Z,96.51
2016-08-05T07:38:52.979Z,96.61
2016-08-05T07:39:52.997Z,96.61
2016-08-05T07:40:53.047Z,96.42
2016-08-05T07:41:53.040Z,97.38
2016-08-05T07:42:53.070Z,96.99
2016-08-05T07:43:53.095Z,96.42
2016-08-05T07:44:53.106Z,95.12
2016-08-05T07:45:53.140Z,95.21
2016-08-05T07:46:53.156Z,94.3
2016-08-05T07:47:53.180Z,92.85
2016-08-05T07:48:52.490Z,92.22
2016-08-05T07:49:53.240Z,91.36
2016-08-05T07:50:53.245Z,90.78
2016-08-05T07:51:52.572Z,90.83
2016-08-05T07:52:53.303Z,89.96
2016-08-05T07:53:52.626Z,89.33
2016-08-05T07:54:52.647Z,89.14
2016-08-05T07:55:53.366Z,89.43
2016-08-05T07:56:52.745Z,89.81
2016-08-05T07:57:53.424Z,90
2016-08-05T07:58:53.606Z,89.86
2016-08-05T07:59:53.466Z,89.58
2016-08-05T08:00:53.494Z,90.34
2016-08-05T08:01:53.696Z,90.54
2016-08-05T08:02:53.553Z,90.34
2016-08-05T08:03:53.579Z,89.77
2016-08-05T08:04:52.880Z,89.14
2016-08-05T08:05:52.913Z,88.08
2016-08-05T08:06:52.936Z,86.77
2016-08-05T08:07:53.794Z,86.82
2016-08-05T08:08:52.987Z,85.99
2016-08-05T08:09:53.763Z,85.31
2016-08-05T08:10:53.742Z,85.31
2016-08-05T08:11:53.777Z,85.6
2016-08-05T08:12:53.788Z,85.85
2016-08-05T08:13:53.806Z,85.46
2016-08-05T08:14:53.122Z,85.46
2016-08-05T08:15:53.155Z,85.27
2016-08-05T08:16:53.886Z,84.79
2016-08-05T08:17:53.908Z,85.02
2016-08-05T08:18:53.244Z,84.83
2016-08-05T08:19:53.974Z,85.17
2016-08-05T08:20:54.035Z,85.08
2016-08-05T08:21:53.374Z,85.75
2016-08-05T08:22:54.098Z,86.19
2016-08-05T08:23:54.056Z,87.26
2016-08-05T08:24:54.093Z,86.68
2016-08-05T08:25:53.405Z,86.48
2016-08-05T08:26:54.137Z,86.48
2016-08-05T08:27:53.463Z,85.66
2016-08-05T08:28:54.183Z,84.35
2016-08-05T08:29:54.227Z,82.9
2016-08-05T08:30:54.242Z,82.84
2016-08-05T08:31:54.261Z,82.65
2016-08-05T08:32:54.285Z,82.17
2016-08-05T08:33:53.656Z,81.98
2016-08-05T08:34:54.369Z,82.07
2016-08-05T08:35:54.370Z,82.26
2016-08-05T08:36:53.687Z,82.17
2016-08-05T08:37:53.706Z,82.94
2016-08-05T08:38:54.433Z,82.84
2016-08-05T08:39:54.475Z,83.23
2016-08-05T08:40:53.795Z,83.23
2016-08-05T08:41:54.517Z,83.23
2016-08-05T08:42:53.846Z,82.17
2016-08-05T08:43:54.577Z,82.75
2016-08-05T08:44:54.590Z,82.65
2016-08-05T08:45:54.613Z,81.98
2016-08-05T08:46:53.936Z,81.98
2016-08-05T08:47:54.666Z,82.9
2016-08-05T08:48:54.726Z,82.61
2016-08-05T08:49:54.727Z,83.19
2016-08-05T08:50:54.045Z,83.19
2016-08-05T08:51:54.774Z,84.01
2016-08-05T08:52:54.796Z,84.31
2016-08-05T08:53:54.130Z,84.31
2016-08-05T08:54:54.853Z,85.17
2016-08-05T08:55:54.982Z,85.37
2016-08-05T08:56:54.911Z,85.46
2016-08-05T08:57:55.022Z,84.89
2016-08-05T08:58:54.965Z,84.35
2016-08-05T08:59:55.023Z,82.9
2016-08-05T09:00:54.305Z,81.4
2016-08-05T09:01:54.336Z,80.86
2016-08-05T09:02:54.355Z,80.03
2016-08-05T09:03:55.097Z,79.83
2016-08-05T09:04:54.402Z,78.96
2016-08-05T09:05:55.137Z,78.03
2016-08-05T09:06:55.166Z,77.17
2016-08-05T09:07:55.189Z,76.14
2016-08-05T09:08:55.255Z,75.65
2016-08-05T09:09:54.632Z,75.4
2016-08-05T09:10:55.295Z,74.08
2016-08-05T09:11:54.646Z,73.15
2016-08-05T09:12:55.322Z,71.89
2016-08-05T09:13:55.462Z,72.28
2016-08-05T09:14:55.366Z,71.99
2016-08-05T09:15:54.726Z,71.99
2016-08-05T09:16:55.439Z,71.5
2016-08-05T09:17:55.456Z,71.6
2016-08-05T09:18:54.780Z,70.54
2016-08-05T09:19:55.498Z,71.44
2016-08-05T09:20:55.548Z,70.76
2016-08-05T09:21:55.561Z,70.18
2016-08-05T09:22:55.597Z,69.02
2016-08-05T09:23:55.613Z,70.51
2016-08-05T09:24:55.647Z,69.93
2016-08-05T09:25:55.674Z,70.31
2016-08-05T09:26:55.703Z,70.21
2016-08-05T09:27:55.727Z,70.67
2016-08-05T09:28:55.747Z,70.76
2016-08-05T09:29:55.786Z,70.47
2016-08-05T09:30:55.817Z,70.76
2016-08-05T09:31:55.137Z,70.51
2016-08-05T09:32:55.154Z,70.12
2016-08-05T09:33:56.014Z,68.96
2016-08-05T09:34:55.913Z,68.37
2016-08-05T09:35:56.030Z,69.15
2016-08-05T09:36:55.260Z,69.44
2016-08-05T09:37:56.045Z,68.34
2016-08-05T09:38:56.026Z,69.41
2016-08-05T09:39:55.339Z,68.37
2016-08-05T09:40:56.085Z,68.28
2016-08-05T09:41:55.404Z,69.64
2016-08-05T09:42:55.436Z,70.54
2016-08-05T09:43:56.181Z,67.73
2016-08-05T09:44:56.195Z,67.92
2016-08-05T09:45:56.234Z,67.44
2016-08-05T09:46:56.234Z,67.44
2016-08-05T09:47:55.566Z,66.37
2016-08-05T09:48:56.316Z,66.76
2016-08-05T09:49:55.626Z,66.17
2016-08-05T09:50:56.375Z,66.76
2016-08-05T09:51:55.682Z,66.66
2016-08-05T09:52:56.415Z,65.2
2016-08-05T09:53:55.743Z,65.24
2016-08-05T09:54:56.471Z,65.14
2016-08-05T09:55:56.492Z,65.24
2016-08-05T09:56:55.824Z,65.69
2016-08-05T09:57:56.578Z,66.86
2016-08-05T09:58:56.608Z,67.5
2016-08-05T09:59:55.904Z,67.63
2016-08-05T10:00:56.653Z,67.92
2016-08-05T10:01:56.669Z,66.76
2016-08-05T10:02:56.941Z,67.14
2016-08-05T10:03:56.934Z,68.28
2016-08-05T10:04:57.144Z,68.28
2016-08-05T10:05:56.067Z,66.69
2016-08-05T10:06:57.153Z,66.4
2016-08-05T10:07:56.954Z,67.11
2016-08-05T10:08:57.162Z,66.34
2016-08-05T10:09:56.959Z,67.47
2016-08-05T10:10:56.214Z,68.05
2016-08-05T10:11:57.004Z,68.05
2016-08-05T10:12:56.267Z,67.85
2016-08-05T10:13:57.003Z,67.85
2016-08-05T10:14:57.142Z,68.57
2016-08-05T10:15:57.066Z,66.47
2016-08-05T10:16:57.136Z,66.47
2016-08-05T10:17:56.414Z,65.43
2016-08-05T10:18:56.439Z,65.14
2016-08-05T10:19:57.175Z,65.05
2016-08-05T10:20:56.505Z,65.14
2016-08-05T10:21:57.223Z,64.56
2016-08-05T10:22:56.556Z,64.56
2016-08-05T10:23:56.580Z,64.36
2016-08-05T10:24:57.334Z,64.33
2016-08-05T10:25:57.347Z,66.76
2016-08-05T10:26:57.513Z,66.17
2016-08-05T10:27:56.693Z,66.72
2016-08-05T10:28:56.768Z,67.31
2016-08-05T10:29:57.455Z,67.24
2016-08-05T10:30:57.495Z,66.47
2016-08-05T10:31:57.513Z,66.95
2016-08-05T10:32:57.533Z,65.01
2016-08-05T10:33:57.355Z,65.89
2016-08-05T10:34:57.090Z,64.17
2016-08-05T10:35:57.782Z,65.5
2016-08-05T10:36:57.655Z,66.14
2016-08-05T10:37:57.245Z,65.37
2016-08-05T10:38:57.094Z,64.5
2016-08-05T10:39:57.173Z,66.3
2016-08-05T10:40:57.762Z,67.47
2016-08-05T10:41:57.790Z,66.2
2016-08-05T10:42:57.834Z,67.18
2016-08-05T10:43:57.153Z,66.02
2016-08-05T10:44:57.885Z,65.72
2016-08-05T10:45:57.191Z,64.95
2016-08-05T10:46:57.382Z,64.98
2016-08-05T10:47:57.240Z,63.72
2016-08-05T10:48:57.381Z,62.88
2016-08-05T10:49:58.021Z,61.42
2016-08-05T10:50:58.043Z,61.91
2016-08-05T10:51:58.072Z,62.29
2016-08-05T10:52:58.106Z,64.72
2016-08-05T10:53:58.131Z,64.14
2016-08-05T10:54:58.165Z,63.95
2016-08-05T10:55:58.183Z,63.56
2016-08-05T10:56:57.754Z,63.07
2016-08-05T10:57:57.553Z,63.46
2016-08-05T10:58:58.265Z,63.26
2016-08-05T10:59:58.312Z,62.39
2016-08-05T11:00:58.314Z,61.07
2016-08-05T11:01:57.644Z,61.84
2016-08-05T11:02:58.368Z,61.84
2016-08-05T11:03:57.716Z,62.68
2016-08-05T11:04:57.734Z,62.04
2016-08-05T11:05:57.773Z,60.58
2016-08-05T11:06:58.493Z,61.45
2016-08-05T11:07:57.804Z,60.19
2016-08-05T11:08:57.842Z,59.74
2016-08-05T11:09:57.863Z,60.51
2016-08-05T11:10:57.906Z,59.74
2016-08-05T11:11:58.183Z,60.51
2016-08-05T11:12:58.661Z,59.74
2016-08-05T11:13:58.682Z,59.64
2016-08-05T11:14:58.729Z,59.83
2016-08-05T11:15:58.032Z,58.83
2016-08-05T11:16:58.068Z,59.05
2016-08-05T11:17:58.808Z,60.41
2016-08-05T11:18:58.831Z,58.76
2016-08-05T11:19:58.848Z,59.9
2016-08-05T11:20:58.902Z,60.48
2016-08-05T11:21:59.015Z,60.97
2016-08-05T11:22:58.929Z,61.38
2016-08-05T11:23:58.961Z,61.58
2016-08-05T11:24:58.290Z,61.8
2016-08-05T11:25:58.322Z,61.61
2016-08-05T11:26:58.602Z,60.35
2016-08-05T11:27:59.071Z,59.28
2016-08-05T11:28:59.100Z,58.98
2016-08-05T11:29:59.131Z,59.57
2016-08-05T11:30:59.204Z,59.95
2016-08-05T11:31:58.492Z,61
2016-08-05T11:32:59.225Z,60.41
2016-08-05T11:33:59.289Z,61.55
2016-08-05T11:34:59.283Z,60.35
2016-08-05T11:35:59.301Z,60.45
2016-08-05T11:36:59.330Z,62.26
2016-08-05T11:37:59.373Z,63.82
2016-08-05T11:38:58.672Z,64.47
2016-08-05T11:39:59.485Z,63.3
2016-08-05T11:40:59.711Z,62.98
2016-08-05T11:42:59.490Z,64.98
2016-08-05T11:43:59.553Z,65.47
2016-08-05T11:44:59.550Z,66.63
2016-08-05T11:45:59.591Z,66.63
2016-08-05T11:46:59.622Z,66.98
2016-08-05T11:47:58.921Z,67.27
2016-08-05T11:48:59.667Z,67.76
2016-08-05T11:49:59.693Z,68.24
2016-08-05T11:50:59.721Z,68.24
2016-08-05T11:51:59.753Z,67.85
2016-08-05T11:52:59.781Z,67.46
2016-08-05T11:53:59.802Z,67.37
2016-08-05T11:54:59.817Z,67.27
2016-08-05T11:55:59.882Z,67.11
2016-08-05T11:57:59.907Z,66.53
2016-08-05T11:58:59.950Z,65.27
2016-08-05T11:59:59.269Z,65.4
2016-08-05T12:00:59.998Z,64.43
2016-08-05T12:02:00.082Z,64.92
2016-08-05T12:02:59.343Z,64.65
2016-08-05T12:04:00.076Z,64.65
2016-08-05T12:05:00.102Z,64.56
2016-08-05T12:06:00.124Z,63.59
2016-08-05T12:06:59.454Z,64.59
2016-08-05T12:07:59.465Z,63.65
2016-08-05T12:08:59.501Z,62.13
2016-08-05T12:09:59.527Z,61.25
2016-08-05T12:11:00.271Z,60.77
2016-08-05T12:12:59.913Z,61.16
2016-08-05T12:14:00.596Z,59.9
2016-08-05T12:15:00.591Z,59.61
2016-08-05T12:16:00.564Z,59.28
2016-08-05T12:17:00.574Z,61.1
2016-08-05T12:18:00.612Z,63.01
2016-08-05T12:19:00.592Z,63.88
2016-08-05T12:20:00.656Z,64.79
2016-08-05T12:21:00.641Z,65.95
2016-08-05T12:22:00.619Z,66.85
2016-08-05T12:23:00.020Z,68.66
2016-08-05T12:24:00.635Z,71.23
2016-08-05T12:25:00.681Z,74.29
2016-08-05T12:26:00.734Z,76.95
2016-08-05T12:27:00.696Z,78.94
2016-08-05T12:28:00.727Z,81.02
2016-08-05T12:29:00.044Z,82.92
2016-08-05T12:30:00.789Z,85.86
2016-08-05T12:31:00.918Z,87.74
2016-08-05T12:32:00.843Z,87.7
2016-08-05T12:33:00.879Z,90.06
2016-08-05T12:34:00.931Z,90.16
2016-08-05T12:35:01.008Z,90.83
2016-08-05T12:36:00.934Z,91.13
2016-08-05T12:37:01.021Z,91.46
2016-08-05T12:38:01.004Z,92.04
2016-08-05T12:39:00.299Z,92.43
2016-08-05T12:40:01.040Z,92.33
2016-08-05T12:41:01.056Z,93.34
2016-08-05T12:42:00.384Z,93.91
2016-08-05T12:43:01.109Z,95.26
2016-08-05T12:44:01.132Z,94.21
2016-08-05T12:45:00.453Z,93.82
2016-08-05T12:46:01.173Z,95.03
2016-08-05T12:47:01.214Z,95.89
2016-08-05T12:48:01.315Z,96.27
2016-08-05T12:49:01.260Z,96.94
2016-08-05T12:50:01.293Z,96.32
2016-08-05T12:51:01.313Z,96.8
2016-08-05T12:52:01.333Z,96.8
2016-08-05T12:53:01.366Z,96.51
2016-08-05T12:54:01.373Z,95.55
2016-08-05T12:55:01.412Z,96.17
2016-08-05T12:56:01.422Z,95.21
2016-08-05T12:57:01.495Z,95.4
2016-08-05T12:58:01.473Z,95.17
2016-08-05T12:59:01.491Z,94.68
2016-08-05T13:00:01.521Z,93.33
2016-08-05T13:01:01.553Z,92.13